Aérodrome :







RETROUVEZ-NOUS SUR...

 
LOGIN :

S'inscrire | Disclaimer

   EN    FR    IT 

 









Légende :    VFR   VFR Marginal   IFR   IFR Intensif   IFR Très Intensif
Visi : 
Plafond : 
>= 8 km
>= 3000ft
5 à 8 km
1000 à 3000 ft
1500m à 5 km
500 à 1000 ft
800 à 1500m
200 à 500 ft
< 800m
< 200 ft
Symboles :   Orages  Brouillard  Fortes neiges  Fortes précipitations  Vent > 20 kt






- Altitude de l'aérodrome : 20 ft
- Code IATA : BOS


KBOS - General Edward Lawrence Logan International

DERNIER METAR :
  • 100654Z 21016KT 10SM -RA SCT018 BKN080 OVC100 15/12 A2968 RMK AO2 PK WND 22026/0603 SLP048 P0002 T01500117

METARs EXPIRÉS :
  • 100554Z 22016G23KT 10SM -RA FEW020 SCT055 OVC100 16/12 A2967 RMK AO2 SLP047 P0002 60013 T01560122 10161 20133 55013
  • 100539Z 21016G23KT 10SM -RA SCT022 BKN055 OVC100 16/12 A2966 RMK AO2 P0001 T01560122
  • 100454Z 21015G22KT 10SM -RA BKN016 BKN021 OVC026 16/12 A2966 RMK AO2 PK WND 19029/0404 SLP044 P0001 T01560122 401610050

TAF KBOS
Valide du 10 à 06h jusqu'au 11 à 12h UTC


100537Z 1006/1112 22016G27KT P6SM -RA BKN015
FM100900 22013G26KT P6SM BKN020
FM101500 22013G26KT P6SM BKN030
FM102000 22012G26KT P6SM -SHRA OVC030
FM102300 27010G19KT 6SM -RA OVC025
FM110900 30007KT 2SM -SN BR OVC015
FM111100 31007KT 1SM -SN BR OVC020



MET'MAP, la Météo Aéronautique d'un coup d'oeil ! - Copyright ORBIFLY Décembre 2007 - Disclaimer

ORBIFLY MET'MAP TEAM :

Programmation & Développement : Alexandra Zaïnal
Sur une idée originale de : Baudouin d'Aumeries
Assistance à la programmation : Marc-Olivier Méhu
Soutien technique & logistique : Manuel Goepfert

Contact : metmap@orbifly.com




SOURCES & CREDITS :

   NOAA